Terminal Aerodrome Forecast
Issued by NWS

Home | Current Version | Previous Version | Text Only | Print | Product List | Glossary On
Versions: 1 2 3 4 5 6 7 8 9 10 11 12 13 14 15 16 17 18 19 20
000
FTUS42 KILM 292337
TAFCRE
TAF
KCRE 292337Z 3000/3024 06004KT P6SM FEW040 SCT250
     FM300600 03002KT P6SM BKN250
     FM301300 05007KT P6SM VCSH SCT050 BKN250
     FM301900 11007KT P6SM VCSH BKN050 BKN150=

USA.gov is the U.S. government's official web portal to all federal, state and local government web resources and services.